Time;durP1;ratioP1;P1;durP2;ratioP2;P2;SDS_P1;SDS_P2;PMS_P1;PMS_P2;Temp;Humidity;BMP_temperature;BMP_pressure;BME280_temperature;BME280_humidity;BME280_pressure;Samples;Min_cycle;Max_cycle;Signal;HPM_P1;HPM_P2
2021/07/25 00:01:19;;;;;;;3.40;2.88;;;24.10;49.90;;;;;;5067805;28;20192;-80
2021/07/25 00:03:49;;;;;;;3.40;3.10;;;24.00;49.80;;;;;;5068415;28;20224;-80
2021/07/25 00:06:16;;;;;;;3.20;2.90;;;24.10;50.00;;;;;;5068777;28;20260;-80
2021/07/25 00:08:42;;;;;;;3.38;3.00;;;24.10;49.90;;;;;;5084972;28;20170;-80
2021/07/25 00:11:08;;;;;;;3.58;3.22;;;24.00;49.90;;;;;;5084869;28;20183;-80
2021/07/25 00:13:40;;;;;;;3.40;3.10;;;24.00;49.90;;;;;;5084851;28;20264;-80
2021/07/25 00:16:11;;;;;;;3.20;2.90;;;24.00;49.90;;;;;;5085286;28;20200;-81
2021/07/25 00:18:41;;;;;;;3.42;3.13;;;24.00;50.00;;;;;;5051136;28;20211;-80
2021/07/25 00:21:18;;;;;;;3.45;3.10;;;24.00;49.90;;;;;;5085007;28;20203;-80
2021/07/25 00:23:50;;;;;;;5.00;3.50;;;24.00;50.00;;;;;;5068096;28;20188;-80
2021/07/25 00:26:25;;;;;;;3.33;3.03;;;24.00;50.00;;;;;;5068261;28;20185;-80
2021/07/25 00:28:51;;;;;;;3.58;3.25;;;24.00;49.90;;;;;;5067930;28;20216;-80
2021/07/25 00:31:17;;;;;;;3.83;3.42;;;24.00;50.00;;;;;;5084728;28;20154;-80
2021/07/25 00:33:44;;;;;;;3.50;3.20;;;24.00;50.00;;;;;;5088098;28;20181;-80
2021/07/25 00:36:14;;;;;;;3.63;3.10;;;24.00;50.00;;;;;;5089679;28;20162;-80
2021/07/25 00:38:45;;;;;;;3.83;2.88;;;24.00;50.00;;;;;;5054904;28;20183;-81
2021/07/25 00:41:12;;;;;;;3.35;3.05;;;24.00;50.00;;;;;;5055000;28;20189;-80
2021/07/25 00:43:38;;;;;;;3.65;3.25;;;24.00;50.00;;;;;;5105682;28;20162;-80
2021/07/25 00:46:04;;;;;;;3.40;3.10;;;24.00;50.10;;;;;;5088611;28;20160;-81
2021/07/25 00:48:30;;;;;;;3.80;3.33;;;24.00;50.20;;;;;;5089299;28;20188;-80
2021/07/25 00:50:58;;;;;;;3.53;3.08;;;24.00;50.20;;;;;;5105493;28;20174;-80
2021/07/25 00:53:24;;;;;;;3.20;2.90;;;24.00;50.10;;;;;;5105579;28;20257;-80
2021/07/25 00:55:50;;;;;;;3.75;3.30;;;24.00;50.10;;;;;;5088974;28;20161;-80
2021/07/25 00:58:20;;;;;;;3.40;3.10;;;24.00;50.10;;;;;;5088908;28;20161;-80
2021/07/25 01:00:46;;;;;;;3.10;2.80;;;24.00;50.10;;;;;;5070961;28;20185;-80
2021/07/25 01:03:32;;;;;;;4.18;3.30;;;24.00;50.20;;;;;;5088084;28;20213;-80
2021/07/25 01:06:38;;;;;;;3.40;3.10;;;24.00;50.20;;;;;;5089147;28;20168;-80
2021/07/25 01:09:12;;;;;;;3.40;2.88;;;23.90;50.20;;;;;;5074007;28;20176;-81
2021/07/25 01:11:46;;;;;;;4.00;3.20;;;23.90;50.20;;;;;;5105092;28;20169;-81
2021/07/25 01:14:34;;;;;;;3.25;2.92;;;23.90;50.30;;;;;;5105529;28;20221;-80
2021/07/25 01:17:28;;;;;;;3.42;3.13;;;23.90;50.30;;;;;;5070547;28;20248;-80
2021/07/25 01:19:56;;;;;;;3.00;2.70;;;24.00;50.30;;;;;;5105228;28;20173;-80
2021/07/25 01:22:27;;;;;;;3.58;3.22;;;23.90;50.20;;;;;;5071303;28;20655;-81
2021/07/25 01:24:59;;;;;;;3.38;3.05;;;23.90;50.30;;;;;;5054865;28;20193;-80
2021/07/25 01:27:52;;;;;;;3.30;3.00;;;23.90;50.30;;;;;;5053362;28;20177;-81
2021/07/25 01:30:28;;;;;;;3.30;3.00;;;24.00;50.30;;;;;;5088750;28;20166;-80
2021/07/25 01:32:56;;;;;;;3.63;3.33;;;23.90;50.30;;;;;;5071365;28;20257;-81
2021/07/25 01:35:26;;;;;;;3.38;3.08;;;23.90;50.30;;;;;;5121875;28;20201;-80
2021/07/25 01:37:52;;;;;;;3.30;3.00;;;23.90;50.30;;;;;;5071123;28;20185;-80
2021/07/25 01:40:27;;;;;;;3.90;3.22;;;23.90;50.40;;;;;;5070976;28;20161;-81
2021/07/25 01:42:57;;;;;;;3.47;3.17;;;23.90;50.40;;;;;;5053596;28;20226;-80
2021/07/25 01:45:23;;;;;;;3.67;3.28;;;23.90;50.40;;;;;;5085641;28;20223;-80
2021/07/25 01:47:53;;;;;;;3.65;3.28;;;23.90;50.50;;;;;;5087740;28;20161;-81
2021/07/25 01:50:19;;;;;;;3.15;2.85;;;23.90;50.40;;;;;;5070198;28;20257;-80
2021/07/25 01:52:46;;;;;;;3.25;2.95;;;23.80;50.40;;;;;;5087274;28;20169;-79
2021/07/25 01:55:12;;;;;;;3.28;2.97;;;23.90;50.40;;;;;;5070949;28;20196;-80
2021/07/25 01:57:44;;;;;;;3.47;3.17;;;23.90;50.60;;;;;;5087968;28;20165;-80
2021/07/25 02:00:13;;;;;;;3.40;3.10;;;23.90;50.40;;;;;;5053564;28;20185;-80
2021/07/25 02:02:39;;;;;;;3.60;3.30;;;23.90;50.50;;;;;;5087053;28;20316;-81
2021/07/25 02:05:05;;;;;;;3.53;3.22;;;23.90;50.50;;;;;;5070169;28;20169;-80
2021/07/25 02:07:37;;;;;;;3.65;2.95;;;23.90;50.50;;;;;;5104463;28;20193;-80
2021/07/25 02:10:03;;;;;;;3.30;3.00;;;23.90;51.20;;;;;;5052993;28;20213;-80
2021/07/25 02:12:33;;;;;;;3.42;3.13;;;23.80;50.50;;;;;;5087659;28;20164;-80
2021/07/25 02:14:59;;;;;;;3.53;2.97;;;23.90;50.60;;;;;;5086693;28;20213;-81
2021/07/25 02:17:25;;;;;;;3.05;2.78;;;23.80;50.50;;;;;;5087315;28;20165;-80
2021/07/25 02:19:51;;;;;;;3.63;3.20;;;23.80;50.60;;;;;;5070928;28;20165;-80
2021/07/25 02:22:17;;;;;;;3.08;2.78;;;23.80;50.60;;;;;;5087508;28;20197;-80
2021/07/25 02:24:43;;;;;;;3.85;3.33;;;23.80;50.60;;;;;;5104355;28;20165;-81
2021/07/25 02:27:09;;;;;;;3.42;3.13;;;23.80;50.60;;;;;;5087190;28;20158;-80
2021/07/25 02:29:41;;;;;;;3.42;3.10;;;23.90;50.70;;;;;;5070405;28;20239;-81
2021/07/25 02:32:07;;;;;;;3.78;3.10;;;23.80;50.60;;;;;;5052759;28;20196;-80
2021/07/25 02:34:40;;;;;;;3.20;2.90;;;23.80;50.70;;;;;;5069818;28;20246;-80
2021/07/25 02:37:10;;;;;;;3.30;3.00;;;23.80;50.70;;;;;;5086167;28;20539;-81
2021/07/25 02:39:42;;;;;;;3.35;2.92;;;23.80;50.70;;;;;;5087207;28;20169;-80
2021/07/25 02:42:12;;;;;;;3.47;3.17;;;23.80;50.70;;;;;;5052510;28;20181;-80
2021/07/25 02:44:38;;;;;;;3.47;3.00;;;23.80;50.70;;;;;;5069031;28;20185;-81
2021/07/25 02:47:13;;;;;;;3.45;3.10;;;23.80;50.70;;;;;;5086791;28;20189;-80
2021/07/25 02:49:43;;;;;;;3.47;3.17;;;23.80;51.40;;;;;;5085695;28;20180;-80
2021/07/25 02:52:13;;;;;;;3.88;3.20;;;23.80;50.80;;;;;;5068703;28;20214;-81
2021/07/25 02:54:39;;;;;;;3.88;3.22;;;23.80;50.70;;;;;;5068940;28;20216;-80
2021/07/25 02:57:05;;;;;;;3.20;2.90;;;23.70;50.70;;;;;;5086395;28;20158;-80
2021/07/25 02:59:31;;;;;;;3.30;3.00;;;23.80;50.80;;;;;;5070065;28;20169;-80
2021/07/25 03:01:57;;;;;;;3.63;2.85;;;23.80;50.80;;;;;;5086164;28;20209;-80
2021/07/25 03:04:23;;;;;;;3.50;3.20;;;23.80;50.80;;;;;;5086532;28;20191;-80
2021/07/25 03:06:53;;;;;;;3.38;3.08;;;23.80;50.80;;;;;;5069471;28;20165;-80
2021/07/25 03:09:19;;;;;;;3.50;3.20;;;23.80;50.90;;;;;;5068383;28;20299;-80
2021/07/25 03:11:45;;;;;;;3.45;3.15;;;23.70;50.80;;;;;;5086393;28;20161;-80
2021/07/25 03:14:17;;;;;;;3.63;3.17;;;23.70;50.80;;;;;;5087258;28;20193;-80
2021/07/25 03:16:48;;;;;;;3.40;3.10;;;23.80;50.90;;;;;;5068454;28;20185;-80
2021/07/25 03:19:14;;;;;;;3.38;3.08;;;23.80;50.90;;;;;;5067922;28;20176;-80
2021/07/25 03:21:43;;;;;;;3.40;2.85;;;23.70;50.90;;;;;;5086580;28;20164;-80
2021/07/25 03:24:14;;;;;;;3.72;3.20;;;23.80;51.00;;;;;;5068396;28;20609;-80
2021/07/25 03:26:45;;;;;;;3.10;2.80;;;23.70;50.90;;;;;;5051416;28;20262;-80
2021/07/25 03:29:15;;;;;;;3.55;3.20;;;23.70;50.90;;;;;;5085613;28;20214;-80
2021/07/25 03:31:41;;;;;;;3.10;2.80;;;23.70;50.90;;;;;;5085590;28;20265;-80
2021/07/25 03:34:07;;;;;;;3.40;3.10;;;23.80;50.90;;;;;;5069058;28;20189;-81
2021/07/25 03:36:33;;;;;;;3.50;3.20;;;23.70;50.90;;;;;;5086920;28;20168;-80
2021/07/25 03:38:59;;;;;;;3.58;3.28;;;23.80;51.00;;;;;;5086340;28;20185;-80
2021/07/25 03:41:29;;;;;;;3.90;3.00;;;23.70;51.00;;;;;;5101998;28;20200;-80
2021/07/25 03:44:02;;;;;;;3.58;3.28;;;23.70;51.00;;;;;;5084656;28;20246;-80
2021/07/25 03:46:28;;;;;;;3.42;3.10;;;23.80;50.90;;;;;;5067861;28;20184;-80
2021/07/25 03:48:59;;;;;;;3.03;2.72;;;23.80;51.00;;;;;;5068275;28;20628;-80
2021/07/25 03:51:29;;;;;;;3.53;3.15;;;23.80;50.90;;;;;;5067900;28;20189;-79
2021/07/25 03:53:55;;;;;;;3.55;2.97;;;23.80;51.00;;;;;;5084812;28;20232;-80
2021/07/25 03:56:22;;;;;;;3.30;3.00;;;23.80;51.00;;;;;;5085833;28;20158;-80
2021/07/25 03:58:48;;;;;;;3.45;3.15;;;23.70;50.90;;;;;;5084964;28;20170;-80
2021/07/25 04:01:18;;;;;;;3.10;2.80;;;23.70;50.90;;;;;;5086645;28;20208;-80
2021/07/25 04:03:44;;;;;;;3.80;3.40;;;23.80;50.90;;;;;;5045823;28;20218;-80
2021/07/25 04:06:10;;;;;;;3.45;3.15;;;23.80;50.80;;;;;;5062050;28;20186;-80
2021/07/25 04:08:36;;;;;;;3.45;2.92;;;23.80;50.80;;;;;;5061763;28;20171;-80
2021/07/25 04:11:03;;;;;;;3.20;2.90;;;23.80;50.70;;;;;;5062537;28;20557;-80
2021/07/25 04:13:33;;;;;;;3.25;2.95;;;23.80;50.80;;;;;;5046290;28;20187;-80
2021/07/25 04:16:03;;;;;;;3.40;3.10;;;23.80;50.80;;;;;;5060951;28;20644;-79
2021/07/25 04:18:29;;;;;;;4.05;3.33;;;23.80;50.80;;;;;;5044309;28;20202;-80
2021/07/25 04:20:55;;;;;;;3.35;3.03;;;23.80;50.70;;;;;;5078827;28;20181;-80
2021/07/25 04:23:20;;;;;;;3.35;3.05;;;23.80;50.80;;;;;;5045279;28;20154;-80
2021/07/25 04:25:50;;;;;;;3.22;2.92;;;23.90;50.70;;;;;;5061355;28;20174;-80
2021/07/25 04:28:21;;;;;;;3.28;2.97;;;23.80;50.70;;;;;;5060799;28;20622;-80
2021/07/25 04:30:51;;;;;;;3.25;2.95;;;23.90;50.70;;;;;;5044226;28;20195;-80
2021/07/25 04:33:20;;;;;;;3.25;2.90;;;23.90;50.60;;;;;;5061294;28;20187;-80
2021/07/25 04:35:50;;;;;;;3.70;3.35;;;23.90;50.60;;;;;;5046849;28;20223;-80
2021/07/25 04:38:16;;;;;;;3.75;3.30;;;23.90;50.70;;;;;;5060983;28;20186;-79
2021/07/25 04:40:46;;;;;;;3.33;3.00;;;23.90;50.70;;;;;;5045496;28;20191;-80
2021/07/25 04:43:13;;;;;;;3.33;3.03;;;23.80;50.70;;;;;;5046715;28;20228;-79
2021/07/25 04:45:54;;;;;;;3.30;3.00;;;23.90;50.70;;;;;;5046357;28;20152;-79
2021/07/25 04:48:29;;;;;;;3.33;2.90;;;23.90;50.50;;;;;;5060137;28;20190;-79
2021/07/25 04:51:05;;;;;;;3.20;2.90;;;23.90;50.50;;;;;;5078099;28;20197;-80
2021/07/25 04:53:40;;;;;;;3.60;3.30;;;23.90;50.60;;;;;;5043837;28;20209;-80
2021/07/25 04:56:13;;;;;;;3.28;2.97;;;23.90;50.70;;;;;;5061339;28;20219;-80
2021/07/25 04:58:56;;;;;;;3.40;3.10;;;23.90;50.70;;;;;;5043986;28;20214;-80
2021/07/25 05:01:25;;;;;;;3.25;2.95;;;23.90;50.60;;;;;;5078548;28;20235;-80
2021/07/25 05:03:55;;;;;;;3.50;3.20;;;23.90;50.70;;;;;;5083735;28;20239;-79
2021/07/25 05:06:26;;;;;;;3.00;2.72;;;23.90;50.60;;;;;;5067291;28;20185;-79
2021/07/25 05:08:58;;;;;;;3.50;3.20;;;23.90;50.50;;;;;;5067670;28;20200;-80
2021/07/25 05:11:32;;;;;;;3.47;3.10;;;24.00;50.50;;;;;;5084540;28;20186;-79
2021/07/25 05:13:59;;;;;;;3.28;2.97;;;24.00;50.40;;;;;;5084212;28;20209;-79
2021/07/25 05:16:40;;;;;;;3.65;3.05;;;24.00;50.40;;;;;;5084672;28;20180;-80
2021/07/25 05:19:26;;;;;;;3.40;3.08;;;24.00;50.30;;;;;;5067635;28;20189;-80
2021/07/25 05:21:59;;;;;;;3.22;2.92;;;24.00;50.30;;;;;;5089828;28;20157;-80
2021/07/25 05:24:29;;;;;;;3.45;3.15;;;24.10;50.30;;;;;;5071683;28;20185;-80
2021/07/25 05:26:59;;;;;;;3.10;2.80;;;24.10;50.30;;;;;;5071018;28;20209;-80
2021/07/25 05:29:29;;;;;;;3.42;3.13;;;24.10;50.30;;;;;;5071418;28;20650;-80
2021/07/25 05:31:55;;;;;;;3.85;3.45;;;24.00;50.30;;;;;;5070980;28;20181;-80
2021/07/25 05:34:25;;;;;;;3.42;2.90;;;24.10;50.20;;;;;;5071142;28;20200;-80
2021/07/25 05:36:51;;;;;;;3.33;3.03;;;24.10;50.20;;;;;;5070968;28;20184;-80
2021/07/25 05:39:17;;;;;;;3.50;3.15;;;24.10;50.10;;;;;;5087899;28;20587;-80
2021/07/25 05:41:43;;;;;;;3.67;3.22;;;24.10;50.10;;;;;;5088069;28;20177;-80
2021/07/25 05:44:09;;;;;;;3.50;2.97;;;24.10;50.10;;;;;;5088451;28;20183;-80
2021/07/25 05:46:43;;;;;;;3.83;3.45;;;24.20;49.90;;;;;;5088628;28;20181;-80
2021/07/25 05:49:09;;;;;;;3.22;2.83;;;24.20;50.00;;;;;;5070577;28;20184;-80
2021/07/25 05:51:39;;;;;;;3.17;2.88;;;24.20;49.90;;;;;;5088474;28;20162;-80
2021/07/25 05:54:05;;;;;;;3.53;3.22;;;24.30;49.80;;;;;;5070150;28;20224;-80
2021/07/25 05:56:31;;;;;;;3.75;2.75;;;24.30;49.80;;;;;;5087970;28;20158;-79
2021/07/25 05:58:57;;;;;;;3.20;2.90;;;24.30;49.80;;;;;;5087124;28;20247;-80
2021/07/25 06:01:27;;;;;;;3.42;3.03;;;24.40;49.70;;;;;;5087622;28;20702;-80
2021/07/25 06:03:53;;;;;;;3.45;2.83;;;24.40;49.70;;;;;;5069794;28;20193;-80
2021/07/25 06:06:23;;;;;;;3.50;3.20;;;24.40;49.80;;;;;;5087535;28;20180;-80
2021/07/25 06:08:49;;;;;;;3.08;2.78;;;24.40;49.70;;;;;;5070116;28;20181;-79
2021/07/25 06:11:26;;;;;;;3.47;2.88;;;24.40;49.70;;;;;;5087360;28;20161;-80
2021/07/25 06:13:56;;;;;;;3.38;3.08;;;24.40;49.60;;;;;;5052929;28;20212;-80
2021/07/25 06:16:22;;;;;;;3.08;2.80;;;24.40;49.70;;;;;;5086924;28;20185;-80
2021/07/25 06:18:48;;;;;;;3.20;2.90;;;24.40;49.70;;;;;;5087774;28;20161;-79
2021/07/25 06:21:21;;;;;;;3.38;3.08;;;24.40;50.20;;;;;;5087368;28;20165;-79
2021/07/25 06:23:47;;;;;;;3.25;2.95;;;24.40;49.60;;;;;;5086089;28;20225;-80
2021/07/25 06:26:17;;;;;;;3.35;3.00;;;24.40;49.60;;;;;;5087603;28;20157;-80
2021/07/25 06:28:45;;;;;;;4.20;3.10;;;24.50;49.50;;;;;;5069919;28;20177;-79
2021/07/25 06:31:16;;;;;;;3.20;2.90;;;24.50;49.60;;;;;;5086763;28;20157;-80
2021/07/25 06:33:45;;;;;;;3.60;3.08;;;24.50;49.40;;;;;;5069402;28;20197;-79
2021/07/25 06:36:19;;;;;;;3.42;3.13;;;24.50;49.30;;;;;;5069007;28;20206;-79
2021/07/25 06:38:49;;;;;;;3.17;2.83;;;24.50;49.40;;;;;;5069367;28;20192;-80
2021/07/25 06:41:15;;;;;;;3.58;3.25;;;24.50;49.30;;;;;;5086918;28;20193;-80
2021/07/25 06:43:41;;;;;;;3.20;2.90;;;24.50;49.40;;;;;;5086609;28;20161;-80
2021/07/25 06:46:09;;;;;;;3.08;2.78;;;24.50;49.30;;;;;;5069840;28;20161;-80
2021/07/25 06:48:35;;;;;;;3.40;3.10;;;24.60;49.20;;;;;;5086615;28;20157;-79
2021/07/25 06:51:02;;;;;;;3.30;2.97;;;24.60;49.10;;;;;;5086671;28;20160;-80
2021/07/25 06:53:34;;;;;;;3.40;3.10;;;24.50;49.10;;;;;;5086725;28;20177;-79
2021/07/25 06:56:03;;;;;;;3.72;2.90;;;24.60;49.30;;;;;;5069271;28;20181;-80
2021/07/25 06:58:29;;;;;;;3.17;2.88;;;24.60;49.20;;;;;;5070136;28;20184;-80
2021/07/25 07:00:59;;;;;;;3.10;2.80;;;24.50;49.20;;;;;;5086376;28;20221;-79
2021/07/25 07:03:29;;;;;;;3.28;2.97;;;24.50;49.20;;;;;;5068766;28;20221;-79
2021/07/25 07:05:55;;;;;;;3.85;3.28;;;24.60;49.30;;;;;;5068701;28;20182;-79
2021/07/25 07:08:25;;;;;;;3.58;3.20;;;24.50;49.30;;;;;;5103368;28;20165;-79
2021/07/25 07:10:51;;;;;;;3.88;3.22;;;24.60;49.40;;;;;;5086336;28;20241;-79
2021/07/25 07:13:18;;;;;;;3.10;2.80;;;24.50;49.30;;;;;;5086662;28;20180;-80
2021/07/25 07:15:44;;;;;;;3.17;2.90;;;24.50;49.40;;;;;;5086783;28;20158;-79
2021/07/25 07:18:10;;;;;;;3.25;2.95;;;24.50;49.30;;;;;;5087719;28;20153;-79
2021/07/25 07:20:44;;;;;;;3.33;3.03;;;24.50;49.20;;;;;;5086363;28;20161;-79
2021/07/25 07:23:11;;;;;;;3.50;3.20;;;24.50;49.30;;;;;;5069031;28;20186;-79
2021/07/25 07:25:39;;;;;;;3.40;3.03;;;24.60;49.20;;;;;;5086244;28;20184;-80
2021/07/25 07:28:09;;;;;;;3.67;3.15;;;24.60;49.20;;;;;;5084918;28;20674;-81
2021/07/25 07:30:44;;;;;;;3.40;3.10;;;24.60;49.20;;;;;;5068315;28;20173;-80
2021/07/25 07:33:15;;;;;;;4.70;3.40;;;24.60;49.20;;;;;;5067733;28;20183;-80
2021/07/25 07:35:41;;;;;;;3.25;2.95;;;24.60;49.10;;;;;;5085259;28;20188;-81
2021/07/25 07:38:16;;;;;;;3.90;3.17;;;24.60;49.10;;;;;;5069781;28;20170;-81
2021/07/25 07:40:49;;;;;;;4.45;3.25;;;24.70;49.00;;;;;;5051780;28;20200;-80
2021/07/25 07:43:21;;;;;;;3.20;2.90;;;24.70;49.00;;;;;;5084417;28;20209;-81
2021/07/25 07:45:51;;;;;;;3.38;3.08;;;24.70;48.90;;;;;;5067857;28;20189;-80
2021/07/25 07:48:19;;;;;;;3.15;2.85;;;24.70;49.00;;;;;;5067478;28;20308;-80
2021/07/25 07:50:45;;;;;;;3.60;3.30;;;24.70;48.90;;;;;;5085633;28;20185;-81
2021/07/25 07:53:11;;;;;;;2.97;2.78;;;24.80;48.90;;;;;;5085615;28;20153;-80
2021/07/25 07:55:37;;;;;;;3.28;2.90;;;24.70;48.90;;;;;;5085496;28;20598;-81
2021/07/25 07:58:03;;;;;;;3.42;3.10;;;24.70;49.00;;;;;;5068546;28;20601;-81
2021/07/25 08:00:34;;;;;;;3.70;3.20;;;24.60;49.10;;;;;;5102168;28;20177;-81
2021/07/25 08:03:07;;;;;;;4.20;3.10;;;24.70;49.20;;;;;;5067215;28;20252;-80
2021/07/25 08:05:34;;;;;;;3.45;2.97;;;24.60;49.20;;;;;;5068037;28;20232;-80
2021/07/25 08:08:00;;;;;;;4.63;2.90;;;24.60;49.30;;;;;;5085642;28;20157;-80
2021/07/25 08:10:30;;;;;;;3.83;3.20;;;24.60;49.30;;;;;;5084737;28;20169;-80
2021/07/25 08:12:56;;;;;;;3.45;2.97;;;24.50;49.60;;;;;;5067461;28;20188;-80
2021/07/25 08:15:22;;;;;;;3.45;3.13;;;24.50;49.40;;;;;;5085765;28;20550;-80
2021/07/25 08:17:54;;;;;;;3.47;3.05;;;24.60;49.30;;;;;;5084626;28;20176;-81
2021/07/25 08:20:20;;;;;;;3.40;3.05;;;24.70;49.20;;;;;;5083632;28;20226;-80
2021/07/25 08:22:51;;;;;;;3.50;3.20;;;24.70;49.10;;;;;;5086811;28;20187;-80
2021/07/25 08:25:17;;;;;;;3.58;3.28;;;24.60;49.20;;;;;;5084425;28;20272;-81
2021/07/25 08:27:47;;;;;;;3.55;3.25;;;24.60;49.10;;;;;;5085083;28;20166;-80
2021/07/25 08:30:13;;;;;;;3.58;3.10;;;24.70;49.10;;;;;;5084243;28;20189;-81
2021/07/25 08:32:39;;;;;;;3.40;3.10;;;24.70;49.00;;;;;;5085086;28;20165;-82
2021/07/25 08:35:06;;;;;;;3.25;2.95;;;24.70;49.00;;;;;;5084808;28;20192;-80
2021/07/25 08:37:32;;;;;;;3.47;3.03;;;24.80;49.00;;;;;;5084779;28;20172;-80
2021/07/25 08:40:03;;;;;;;3.30;3.00;;;24.80;48.90;;;;;;5084842;28;20173;-80
2021/07/25 08:42:30;;;;;;;3.30;3.00;;;24.70;48.90;;;;;;5067432;28;20174;-80
2021/07/25 08:44:56;;;;;;;4.13;3.30;;;24.70;49.00;;;;;;5083994;28;20158;-80
2021/07/25 08:47:42;;;;;;;3.83;3.10;;;24.60;49.00;;;;;;5068516;28;20161;-80
2021/07/25 08:50:15;;;;;;;3.78;3.20;;;24.70;49.00;;;;;;5086184;28;20165;-80
2021/07/25 08:52:46;;;;;;;3.63;2.83;;;24.60;49.20;;;;;;5049546;28;20209;-80
2021/07/25 08:55:18;;;;;;;3.50;3.00;;;24.60;49.20;;;;;;5088144;28;20209;-81
2021/07/25 08:57:49;;;;;;;3.58;3.08;;;24.70;49.20;;;;;;5071550;28;20185;-81
2021/07/25 09:00:16;;;;;;;4.05;3.00;;;24.80;49.20;;;;;;5105305;28;20176;-81
2021/07/25 09:02:45;;;;;;;3.30;3.00;;;24.70;49.10;;;;;;5072301;28;20228;-81
2021/07/25 09:05:15;;;;;;;3.22;2.92;;;24.70;49.20;;;;;;5088713;28;20196;-80
2021/07/25 09:07:42;;;;;;;3.20;2.90;;;24.70;49.20;;;;;;5087507;28;20264;-80
2021/07/25 09:10:11;;;;;;;3.22;2.92;;;24.60;49.30;;;;;;5088057;28;20165;-80
2021/07/25 09:12:42;;;;;;;3.42;3.13;;;24.70;49.20;;;;;;5088209;28;20161;-80
2021/07/25 09:15:17;;;;;;;3.22;2.90;;;24.70;49.00;;;;;;5070026;28;20220;-81
2021/07/25 09:17:49;;;;;;;3.35;3.05;;;24.60;49.20;;;;;;5053974;28;20195;-80
2021/07/25 09:20:18;;;;;;;3.22;2.92;;;24.60;49.50;;;;;;5053439;28;20597;-80
2021/07/25 09:23:00;;;;;;;3.35;3.05;;;24.50;49.50;;;;;;5103554;28;20173;-80
2021/07/25 09:25:31;;;;;;;3.70;3.20;;;24.50;49.50;;;;;;5053748;28;20189;-80
2021/07/25 09:27:57;;;;;;;3.17;2.90;;;24.50;49.50;;;;;;5088421;28;20169;-80
2021/07/25 09:30:28;;;;;;;3.50;3.20;;;24.60;49.40;;;;;;5088690;28;20160;-80
2021/07/25 09:33:01;;;;;;;3.20;2.90;;;24.60;49.40;;;;;;5087026;28;20184;-80
2021/07/25 09:35:36;;;;;;;3.22;2.92;;;24.60;49.50;;;;;;5070169;28;20228;-80
2021/07/25 09:38:14;;;;;;;3.78;2.80;;;24.60;49.40;;;;;;5087167;28;20184;-80
2021/07/25 09:40:42;;;;;;;3.25;2.95;;;24.70;49.20;;;;;;5069872;28;20177;-80
2021/07/25 09:43:15;;;;;;;4.25;3.25;;;24.60;49.20;;;;;;5104593;28;20158;-80
2021/07/25 09:45:55;;;;;;;3.40;3.10;;;24.60;49.40;;;;;;5088249;28;20213;-80
2021/07/25 09:48:33;;;;;;;3.83;3.10;;;24.60;49.40;;;;;;5088018;28;20225;-80
2021/07/25 09:51:20;;;;;;;4.60;3.30;;;24.60;49.30;;;;;;5053056;28;20188;-80
2021/07/25 09:53:48;;;;;;;3.60;3.28;;;24.60;49.30;;;;;;5087497;28;20201;-80
2021/07/25 09:56:20;;;;;;;3.90;3.45;;;24.60;49.30;;;;;;5087713;28;20200;-81
2021/07/25 09:58:46;;;;;;;3.47;3.17;;;24.70;49.30;;;;;;5088301;28;20181;-80
2021/07/25 10:01:40;;;;;;;3.40;3.10;;;24.60;49.30;;;;;;5087578;28;20164;-80
2021/07/25 10:04:18;;;;;;;3.28;2.97;;;24.70;50.00;;;;;;5088885;28;20185;-81
2021/07/25 10:06:46;;;;;;;3.38;3.05;;;24.60;50.10;;;;;;5068571;28;20173;-81
2021/07/25 10:09:19;;;;;;;3.45;3.15;;;24.60;49.60;;;;;;5069741;28;20181;-80
2021/07/25 10:11:59;;;;;;;3.13;2.83;;;24.50;49.60;;;;;;5069630;28;20181;-81
2021/07/25 10:14:33;;;;;;;3.65;3.10;;;24.50;49.70;;;;;;5070325;28;20216;-80
2021/07/25 10:17:03;;;;;;;4.28;3.40;;;24.50;49.60;;;;;;5087098;28;20279;-80
2021/07/25 10:19:38;;;;;;;3.50;3.10;;;24.50;49.70;;;;;;5069961;28;20188;-81
2021/07/25 10:22:07;;;;;;;3.85;3.20;;;24.50;49.80;;;;;;5103862;28;20172;-80
2021/07/25 10:24:33;;;;;;;3.80;3.25;;;24.50;49.90;;;;;;5087146;28;20200;-80
2021/07/25 10:27:03;;;;;;;3.30;3.00;;;24.40;49.90;;;;;;5103680;28;20200;-80
2021/07/25 10:29:34;;;;;;;5.20;2.88;;;24.50;49.80;;;;;;5069873;28;20188;-80
2021/07/25 10:32:00;;;;;;;3.42;3.13;;;24.50;49.70;;;;;;5069684;28;20189;-80
2021/07/25 10:34:33;;;;;;;3.47;3.17;;;24.50;49.70;;;;;;5102554;28;20216;-81
2021/07/25 10:37:04;;;;;;;3.35;3.05;;;24.50;49.80;;;;;;5069106;28;20189;-80
2021/07/25 10:39:30;;;;;;;3.60;3.30;;;24.50;49.80;;;;;;5069230;28;20177;-80
2021/07/25 10:42:02;;;;;;;3.17;2.88;;;24.50;49.90;;;;;;5086617;28;20215;-81
2021/07/25 10:44:33;;;;;;;3.53;3.22;;;24.40;49.90;;;;;;5069253;28;20528;-80
2021/07/25 10:47:23;;;;;;;3.55;3.25;;;24.40;49.90;;;;;;5086429;28;20235;-81
2021/07/25 10:50:19;;;;;;;3.90;3.47;;;24.40;50.00;;;;;;5086967;28;20154;-80
2021/07/25 10:53:03;;;;;;;3.38;3.08;;;24.40;50.10;;;;;;5087307;28;20161;-80
2021/07/25 10:55:49;;;;;;;3.88;3.50;;;24.30;50.10;;;;;;5085566;28;20271;-80
2021/07/25 10:58:20;;;;;;;3.63;3.03;;;24.40;50.30;;;;;;5070017;28;20189;-81
2021/07/25 11:00:50;;;;;;;3.30;2.83;;;24.30;50.30;;;;;;5086952;28;20149;-81
2021/07/25 11:03:39;;;;;;;3.45;3.15;;;24.40;50.20;;;;;;5086663;28;20217;-80
2021/07/25 11:06:18;;;;;;;4.20;2.97;;;24.40;50.30;;;;;;5104051;28;20173;-80
2021/07/25 11:08:51;;;;;;;3.88;3.20;;;24.30;50.20;;;;;;5085800;28;20183;-81
2021/07/25 11:11:49;;;;;;;3.45;3.00;;;24.30;50.30;;;;;;5052702;28;20256;-80
2021/07/25 11:14:39;;;;;;;3.40;3.10;;;24.40;50.40;;;;;;5086458;28;20652;-81
2021/07/25 11:17:05;;;;;;;3.42;3.13;;;24.40;50.40;;;;;;5087622;28;20182;-80
2021/07/25 11:19:51;;;;;;;3.50;3.20;;;24.40;51.10;;;;;;5086150;28;20158;-81
2021/07/25 11:22:45;;;;;;;3.40;3.10;;;24.40;50.30;;;;;;5086478;28;20181;-81
2021/07/25 11:25:27;;;;;;;3.40;3.10;;;24.40;50.30;;;;;;5087854;28;20174;-81
2021/07/25 11:27:53;;;;;;;3.65;3.22;;;24.40;51.10;;;;;;5087672;28;20153;-80
2021/07/25 11:30:51;;;;;;;6.88;3.50;;;24.40;50.20;;;;;;5102697;28;20710;-81
2021/07/25 11:33:43;;;;;;;3.55;3.25;;;24.40;50.20;;;;;;5086600;28;20177;-81
2021/07/25 11:36:16;;;;;;;3.45;3.03;;;24.40;50.30;;;;;;5071764;28;20571;-81
2021/07/25 11:38:42;;;;;;;4.07;3.35;;;24.30;50.50;;;;;;5085214;28;20177;-81
2021/07/25 11:41:13;;;;;;;3.72;3.25;;;24.40;50.30;;;;;;5085933;28;20225;-81
2021/07/25 11:43:55;;;;;;;4.03;3.63;;;24.40;50.40;;;;;;5051711;28;20178;-81
2021/07/25 11:46:31;;;;;;;3.67;3.33;;;24.40;50.40;;;;;;5085509;28;20604;-81
2021/07/25 11:49:16;;;;;;;5.30;3.75;;;24.40;50.30;;;;;;5068243;28;20535;-81
2021/07/25 11:52:03;;;;;;;3.92;3.25;;;24.40;50.30;;;;;;5085758;28;20169;-80
2021/07/25 11:54:41;;;;;;;3.50;3.20;;;24.30;50.30;;;;;;5085521;28;20216;-81
2021/07/25 11:57:15;;;;;;;3.33;3.00;;;24.50;50.20;;;;;;5085877;28;20217;-81
2021/07/25 11:59:53;;;;;;;3.97;3.38;;;24.50;50.10;;;;;;5051995;28;20240;-80
2021/07/25 12:02:24;;;;;;;3.83;3.30;;;24.50;50.10;;;;;;5102039;28;20224;-81
2021/07/25 12:04:50;;;;;;;3.30;3.00;;;24.50;50.10;;;;;;5085422;28;20153;-81
2021/07/25 12:07:20;;;;;;;3.58;3.20;;;24.50;50.10;;;;;;5085393;28;20164;-81
2021/07/25 12:09:51;;;;;;;3.67;3.28;;;24.50;50.10;;;;;;5085012;28;20185;-81
2021/07/25 12:12:19;;;;;;;3.90;3.33;;;24.50;50.20;;;;;;5068071;28;20211;-80
2021/07/25 12:14:57;;;;;;;3.50;3.20;;;24.40;50.20;;;;;;5085422;28;20204;-81
2021/07/25 12:17:47;;;;;;;3.80;3.40;;;24.50;50.10;;;;;;5084242;28;20188;-80
2021/07/25 12:20:29;;;;;;;3.92;3.50;;;24.50;50.20;;;;;;5085418;28;20204;-80
2021/07/25 12:23:00;;;;;;;3.90;3.50;;;24.50;50.20;;;;;;5084559;28;20216;-80
2021/07/25 12:25:32;;;;;;;3.38;3.08;;;24.50;50.20;;;;;;5085936;28;20165;-81
2021/07/25 12:28:13;;;;;;;3.47;3.17;;;24.50;50.10;;;;;;5051949;28;20629;-81
2021/07/25 12:30:44;;;;;;;6.38;3.72;;;24.50;50.10;;;;;;5072469;28;20180;-81
2021/07/25 12:33:11;;;;;;;3.83;3.42;;;24.50;50.00;;;;;;5089176;28;20166;-81
2021/07/25 12:35:45;;;;;;;4.05;3.65;;;24.50;50.00;;;;;;5090150;28;20181;-81
2021/07/25 12:38:12;;;;;;;3.90;3.50;;;24.50;50.00;;;;;;5071802;28;20215;-81
2021/07/25 12:40:55;;;;;;;4.63;3.55;;;24.50;50.00;;;;;;5089574;28;20240;-81
2021/07/25 12:43:26;;;;;;;3.97;3.53;;;24.60;50.00;;;;;;5088904;28;20156;-81
2021/07/25 12:45:58;;;;;;;4.20;3.72;;;24.60;49.90;;;;;;5056030;28;20526;-81
2021/07/25 12:48:30;;;;;;;3.92;3.47;;;24.60;49.90;;;;;;5071261;28;20181;-81
2021/07/25 12:51:20;;;;;;;3.53;3.22;;;24.50;49.90;;;;;;5071473;28;20260;-81
2021/07/25 12:53:55;;;;;;;4.70;3.40;;;24.60;50.00;;;;;;5088738;28;20201;-81
2021/07/25 12:56:29;;;;;;;4.03;3.50;;;24.50;50.10;;;;;;5088833;28;20168;-81
2021/07/25 12:59:03;;;;;;;3.58;3.28;;;24.50;50.00;;;;;;5071738;28;20195;-81
2021/07/25 13:04:24;;;;;;;4.40;3.67;;;24.60;50.00;;;;;;5074602;28;20245;-81
2021/07/25 13:06:54;;;;;;;4.15;3.60;;;24.50;50.00;;;;;;5087524;28;20192;-80
2021/07/25 13:09:25;;;;;;;4.05;3.65;;;24.50;50.00;;;;;;5071263;28;20181;-81
2021/07/25 13:11:53;;;;;;;4.13;3.72;;;24.60;50.00;;;;;;5070947;28;20192;-81